Time;durP1;ratioP1;P1;durP2;ratioP2;P2;SDS_P1;SDS_P2;PMS_P1;PMS_P2;Temp;Humidity;BMP_temperature;BMP_pressure;BME280_temperature;BME280_humidity;BME280_pressure;Samples;Min_cycle;Max_cycle;Signal;HPM_P1;HPM_P2
2022/05/09 00:00:30;;;;;;;12.20;5.50;;;;;12.70;97944.40;;;;111244;1247;41701;-69
2022/05/09 00:03:05;;;;;;;12.90;5.80;;;;;12.60;97940.00;;;;111174;1248;41254;-69
2022/05/09 00:05:37;;;;;;;12.00;5.60;;;;;12.40;97939.00;;;;110815;1250;42135;-69
2022/05/09 00:08:09;;;;;;;12.30;5.20;;;;;12.30;97939.40;;;;111150;1247;41244;-69
2022/05/09 00:10:39;;;;;;;10.40;4.90;;;;;12.30;97941.20;;;;110816;1250;41816;-69
2022/05/09 00:13:09;;;;;;;9.30;4.70;;;;;12.20;97942.00;;;;111089;1248;41472;-68
2022/05/09 00:15:38;;;;;;;9.90;4.10;;;;;12.20;97940.20;;;;111112;1250;41266;-69
2022/05/09 00:18:08;;;;;;;9.80;4.20;;;;;12.20;97938.80;;;;111191;1248;41120;-69
2022/05/09 00:20:40;;;;;;;10.20;4.50;;;;;12.20;97937.00;;;;111107;1248;41134;-68
2022/05/09 00:23:10;;;;;;;11.10;4.20;;;;;12.20;97942.20;;;;111219;1248;41245;-69
2022/05/09 00:25:40;;;;;;;10.30;4.20;;;;;12.10;97943.80;;;;111063;1250;41837;-69
2022/05/09 00:28:10;;;;;;;10.40;3.90;;;;;12.10;97940.80;;;;110926;1249;41955;-68
2022/05/09 00:30:40;;;;;;;;;;;;;12.10;97941.40;;;;111005;1250;41158;-69
2022/05/09 00:33:11;;;;;;;10.00;3.90;;;;;12.00;97937.80;;;;111080;1250;41152;-69
2022/05/09 00:35:44;;;;;;;10.40;4.10;;;;;12.00;97939.20;;;;110776;1250;41394;-68
2022/05/09 00:38:15;;;;;;;10.50;5.00;;;;;11.90;97938.40;;;;111089;1248;41263;-70
2022/05/09 00:43:38;;;;;;;10.20;4.10;;;;;11.88;97941.20;;;;111068;1249;40924;-70
2022/05/09 00:46:10;;;;;;;9.80;4.30;;;;;11.80;97935.00;;;;111195;1248;42183;-70
2022/05/09 00:48:41;;;;;;;11.90;5.30;;;;;11.80;97935.60;;;;111208;1249;42365;-70
2022/05/09 00:51:12;;;;;;;10.40;4.80;;;;;11.80;97936.20;;;;111114;1250;41273;-69
2022/05/09 00:53:43;;;;;;;10.40;4.20;;;;;11.70;97935.00;;;;111096;1248;41163;-67
2022/05/09 00:56:21;;;;;;;9.10;4.20;;;;;11.70;97929.00;;;;111233;1247;41269;-69
2022/05/09 00:59:01;;;;;;;9.20;3.80;;;;;11.70;97930.20;;;;111044;1248;42055;-69
2022/05/09 01:01:32;;;;;;;8.80;3.70;;;;;11.70;97925.60;;;;110899;1250;41140;-68
2022/05/09 01:04:08;;;;;;;10.30;4.40;;;;;11.60;97925.20;;;;111072;1248;41311;-69
2022/05/09 01:06:38;;;;;;;9.40;4.30;;;;;11.60;97925.60;;;;111002;1250;41146;-68
2022/05/09 01:09:11;;;;;;;11.30;4.60;;;;;11.60;97926.40;;;;110948;1250;41164;-69
2022/05/09 01:11:43;;;;;;;11.60;4.80;;;;;11.50;97928.60;;;;111159;1250;42101;-70
2022/05/09 01:14:21;;;;;;;11.20;5.30;;;;;11.50;97929.20;;;;111044;1250;41325;-68
2022/05/09 01:16:58;;;;;;;11.30;5.50;;;;;11.50;97929.40;;;;110829;1250;41198;-69
2022/05/09 01:19:36;;;;;;;15.30;6.70;;;;;11.40;97929.40;;;;110929;1250;41161;-69
2022/05/09 01:22:24;;;;;;;13.60;6.40;;;;;11.22;97933.20;;;;110834;1250;42022;-68
2022/05/09 01:25:00;;;;;;;12.10;6.20;;;;;11.10;97929.20;;;;111038;1250;41602;-69
2022/05/09 01:27:32;;;;;;;10.40;5.20;;;;;11.08;97931.60;;;;111025;1250;41261;-69
2022/05/09 01:30:15;;;;;;;14.60;6.70;;;;;11.00;97929.80;;;;111216;1247;40901;-69
2022/05/09 01:32:55;;;;;;;13.60;6.70;;;;;10.90;97933.00;;;;110961;1250;41188;-69
2022/05/09 01:35:36;;;;;;;16.70;6.90;;;;;10.78;97931.00;;;;110981;1250;41149;-70
2022/05/09 01:38:14;;;;;;;13.10;6.40;;;;;10.70;97930.80;;;;110896;1250;42766;-69
2022/05/09 01:40:46;;;;;;;13.00;6.70;;;;;10.60;97932.40;;;;111130;1248;41891;-69
2022/05/09 01:43:43;;;;;;;11.90;5.70;;;;;10.60;97939.60;;;;110920;1250;41159;-69
2022/05/09 01:46:17;;;;;;;11.00;5.80;;;;;10.50;97931.20;;;;110873;1250;41145;-70
2022/05/09 01:51:38;;;;;;;10.50;5.00;;;;;10.44;97938.60;;;;111080;1248;41240;-69
2022/05/09 01:54:09;;;;;;;9.80;4.60;;;;;10.46;97935.40;;;;111018;1250;41176;-69
2022/05/09 01:56:41;;;;;;;9.70;4.60;;;;;10.50;97935.40;;;;110960;1250;41458;-68
2022/05/09 01:59:14;;;;;;;8.90;4.50;;;;;10.50;97935.20;;;;110861;1250;41153;-69
2022/05/09 02:01:56;;;;;;;9.20;4.20;;;;;10.50;97934.00;;;;110806;1250;41250;-69
2022/05/09 02:04:28;;;;;;;8.30;3.90;;;;;10.50;97939.40;;;;110837;1250;41564;-70
2022/05/09 02:06:58;;;;;;;9.80;4.50;;;;;10.50;97937.80;;;;110931;1250;40746;-69
2022/05/09 02:09:30;;;;;;;11.80;4.60;;;;;10.50;97938.80;;;;110969;1250;41264;-68
2022/05/09 02:12:02;;;;;;;10.10;4.70;;;;;10.50;97942.00;;;;110888;1250;41137;-69
2022/05/09 02:14:32;;;;;;;11.50;4.60;;;;;10.40;97943.20;;;;111036;1250;41987;-68
2022/05/09 02:17:02;;;;;;;;;;;;;10.40;97935.40;;;;111086;1250;41154;-69
2022/05/09 02:19:34;;;;;;;10.40;4.70;;;;;10.38;97938.80;;;;110950;1250;41148;-69
2022/05/09 02:22:05;;;;;;;10.60;4.90;;;;;10.30;97935.80;;;;111026;1250;41298;-68
2022/05/09 02:24:36;;;;;;;10.60;4.70;;;;;10.30;97938.60;;;;111034;1250;41152;-69
2022/05/09 02:27:09;;;;;;;9.20;4.70;;;;;10.28;97943.40;;;;110940;1250;42364;-68
2022/05/09 02:29:42;;;;;;;11.10;4.80;;;;;10.20;97946.40;;;;110974;1250;41178;-68
2022/05/09 02:32:15;;;;;;;10.90;4.60;;;;;10.20;97948.80;;;;110865;1250;40998;-69
2022/05/09 02:34:45;;;;;;;9.10;4.30;;;;;10.20;97952.20;;;;110969;1250;41156;-69
2022/05/09 02:37:18;;;;;;;9.30;4.30;;;;;10.20;97951.20;;;;111128;1248;41351;-70
2022/05/09 02:39:48;;;;;;;8.80;4.00;;;;;10.20;97951.20;;;;110865;1252;41131;-70
2022/05/09 02:42:18;;;;;;;9.60;4.30;;;;;10.20;97950.60;;;;110938;1249;41164;-70
2022/05/09 02:44:49;;;;;;;10.30;4.10;;;;;10.20;97951.80;;;;110967;1250;41375;-67
2022/05/09 02:47:20;;;;;;;10.70;4.30;;;;;10.20;97955.80;;;;111043;1250;41305;-69
2022/05/09 02:49:52;;;;;;;10.40;4.10;;;;;10.20;97952.00;;;;111109;1250;41438;-69
2022/05/09 02:52:22;;;;;;;7.80;3.70;;;;;10.18;97950.20;;;;110902;1250;41315;-70
2022/05/09 02:54:51;;;;;;;10.50;4.10;;;;;10.18;97954.60;;;;110783;1250;41271;-68
2022/05/09 02:57:22;;;;;;;10.00;4.20;;;;;10.18;97956.20;;;;110844;1251;40749;-69
2022/05/09 02:59:52;;;;;;;10.60;4.40;;;;;10.20;97959.60;;;;110894;1251;41248;-69
2022/05/09 03:02:22;;;;;;;9.40;4.40;;;;;10.20;97961.60;;;;110833;1250;41618;-68
2022/05/09 03:04:52;;;;;;;10.40;4.40;;;;;10.20;97960.40;;;;110956;1250;41127;-70
2022/05/09 03:07:22;;;;;;;10.70;4.00;;;;;10.20;97959.80;;;;111055;1250;41151;-69
2022/05/09 03:09:52;;;;;;;9.20;4.00;;;;;10.20;97964.00;;;;110844;1251;41140;-68
2022/05/09 03:12:22;;;;;;;8.70;4.20;;;;;10.20;97969.40;;;;110766;1250;41156;-68
2022/05/09 03:14:52;;;;;;;9.70;3.90;;;;;10.22;97968.60;;;;110892;1250;41299;-69
2022/05/09 03:17:23;;;;;;;11.20;4.20;;;;;10.30;97967.20;;;;111138;1248;41599;-69
2022/05/09 03:19:53;;;;;;;9.10;4.50;;;;;10.30;97963.00;;;;110779;1250;41752;-68
2022/05/09 03:22:27;;;;;;;11.00;5.20;;;;;10.34;97964.40;;;;111058;1250;41151;-69
2022/05/09 03:24:57;;;;;;;9.20;4.60;;;;;10.40;97966.40;;;;111112;1247;41143;-70
2022/05/09 03:27:26;;;;;;;8.50;4.10;;;;;10.40;97967.60;;;;110859;1250;41155;-68
2022/05/09 03:29:57;;;;;;;9.40;4.10;;;;;10.44;97969.60;;;;110761;1253;41168;-70
2022/05/09 03:32:27;;;;;;;9.90;4.40;;;;;10.50;97973.80;;;;110964;1250;41767;-70
2022/05/09 03:34:56;;;;;;;10.80;4.10;;;;;10.60;97979.20;;;;111013;1250;41106;-68
2022/05/09 03:37:25;;;;;;;10.70;4.60;;;;;10.60;97982.40;;;;110713;1250;41262;-69
2022/05/09 03:39:54;;;;;;;9.00;4.30;;;;;10.70;97983.00;;;;110856;1250;41273;-69
2022/05/09 03:42:24;;;;;;;10.70;4.50;;;;;10.80;97989.00;;;;111131;1250;41290;-69
2022/05/09 03:44:53;;;;;;;12.80;5.00;;;;;10.80;97992.40;;;;110795;1250;40963;-68
2022/05/09 03:47:23;;;;;;;11.30;5.70;;;;;10.72;97990.80;;;;111006;1250;41374;-69
2022/05/09 03:49:54;;;;;;;12.30;5.80;;;;;10.60;97989.40;;;;110891;1250;42167;-69
2022/05/09 03:52:25;;;;;;;11.40;5.80;;;;;10.50;97988.40;;;;111132;1248;41143;-68
2022/05/09 03:54:55;;;;;;;11.30;5.00;;;;;10.76;97973.00;;;;110896;1249;41291;-69
2022/05/09 03:57:25;;;;;;;11.20;5.20;;;;;11.42;97969.40;;;;110895;1250;41150;-70
2022/05/09 03:59:55;;;;;;;15.60;6.50;;;;;12.14;97964.00;;;;110812;1252;41489;-69
2022/05/09 04:02:26;;;;;;;10.70;4.70;;;;;12.84;97961.80;;;;110762;1252;41167;-69
2022/05/09 04:04:55;;;;;;;11.90;5.80;;;;;13.42;97960.60;;;;110995;1250;41078;-68
2022/05/09 04:07:24;;;;;;;12.00;5.50;;;;;13.84;97957.60;;;;110708;1250;42002;-68
2022/05/09 04:09:54;;;;;;;10.90;5.40;;;;;14.14;97962.40;;;;110782;1252;42082;-68
2022/05/09 04:12:23;;;;;;;10.20;5.30;;;;;14.30;97959.80;;;;110990;1251;41610;-68
2022/05/09 04:17:40;;;;;;;9.60;4.60;;;;;15.32;97956.60;;;;110941;1250;41155;-69
2022/05/09 04:20:09;;;;;;;12.20;4.70;;;;;15.92;97957.40;;;;110897;1250;41130;-70
2022/05/09 04:22:42;;;;;;;11.40;5.20;;;;;16.46;97953.00;;;;110833;1250;41156;-69
2022/05/09 04:25:15;;;;;;;11.20;5.20;;;;;17.00;97959.40;;;;110743;1250;41160;-69
2022/05/09 04:27:44;;;;;;;13.00;7.20;;;;;17.50;97954.60;;;;110869;1252;42998;-69
2022/05/09 04:30:14;;;;;;;13.90;6.90;;;;;17.60;97955.00;;;;110999;1250;41237;-68
2022/05/09 04:32:43;;;;;;;11.10;5.50;;;;;17.70;97957.60;;;;110791;1251;41156;-69
2022/05/09 04:35:21;;;;;;;9.80;4.70;;;;;18.10;97961.20;;;;110845;1250;42292;-69
2022/05/09 04:37:53;;;;;;;12.30;5.10;;;;;18.58;97961.20;;;;110840;1250;41140;-69
2022/05/09 04:40:30;;;;;;;12.00;4.80;;;;;19.00;97959.80;;;;110884;1250;41263;-69
2022/05/09 04:43:00;;;;;;;13.60;5.50;;;;;19.50;97961.00;;;;110947;1249;42240;-71
2022/05/09 04:45:31;;;;;;;15.60;5.30;;;;;19.70;97963.40;;;;110957;1250;41376;-70
2022/05/09 04:48:02;;;;;;;13.90;5.10;;;;;19.90;97968.60;;;;110987;1248;41166;-69
2022/05/09 04:50:34;;;;;;;15.60;6.30;;;;;20.10;97973.40;;;;110931;1249;41256;-70
2022/05/09 04:53:03;;;;;;;9.80;4.50;;;;;20.16;97968.00;;;;110723;1252;41610;-70
2022/05/09 04:55:35;;;;;;;8.30;3.90;;;;;20.50;97972.20;;;;110908;1252;41729;-69
2022/05/09 04:58:05;;;;;;;9.90;4.10;;;;;20.90;97968.20;;;;110925;1250;41143;-69
2022/05/09 05:00:34;;;;;;;9.00;3.80;;;;;21.16;97969.20;;;;110755;1251;41358;-69
2022/05/09 05:03:03;;;;;;;13.70;4.50;;;;;21.50;97967.00;;;;110974;1250;41157;-69
2022/05/09 05:05:33;;;;;;;10.10;4.50;;;;;21.88;97968.80;;;;110991;1250;41187;-71
2022/05/09 05:08:03;;;;;;;12.60;4.10;;;;;22.20;97975.60;;;;110698;1250;41151;-70
2022/05/09 05:10:32;;;;;;;12.10;4.80;;;;;22.50;97972.00;;;;110852;1249;41149;-69
2022/05/09 05:13:03;;;;;;;9.10;4.20;;;;;22.46;97974.60;;;;110766;1252;42544;-69
2022/05/09 05:15:32;;;;;;;;;;;;;22.80;97974.20;;;;111042;1250;41242;-70
2022/05/09 05:18:01;;;;;;;10.40;3.60;;;;;23.20;97974.80;;;;110822;1252;41263;-70
2022/05/09 05:20:31;;;;;;;17.10;4.70;;;;;23.58;97972.00;;;;110777;1252;41149;-70
2022/05/09 05:23:00;;;;;;;9.50;4.00;;;;;23.80;97977.40;;;;110728;1253;41613;-70
2022/05/09 05:25:31;;;;;;;13.60;4.10;;;;;24.02;97975.00;;;;110795;1252;41145;-69
2022/05/09 05:28:00;;;;;;;9.60;3.80;;;;;24.20;97977.40;;;;110773;1251;41265;-70
2022/05/09 05:30:29;;;;;;;10.20;4.20;;;;;24.40;97976.60;;;;110989;1251;41248;-69
2022/05/09 05:32:59;;;;;;;11.40;4.60;;;;;24.56;97974.80;;;;110917;1251;41899;-69
2022/05/09 05:35:27;;;;;;;13.50;4.90;;;;;24.70;97973.80;;;;110836;1250;41363;-70
2022/05/09 05:37:56;;;;;;;12.10;4.80;;;;;24.50;97975.40;;;;111010;1250;42551;-70
2022/05/09 05:40:26;;;;;;;9.50;3.70;;;;;24.04;97977.80;;;;110744;1250;41134;-70
2022/05/09 05:42:55;;;;;;;10.20;3.40;;;;;24.20;97978.20;;;;110997;1250;42260;-70
2022/05/09 05:45:25;;;;;;;7.90;3.50;;;;;24.50;97977.80;;;;110777;1251;41616;-70
2022/05/09 05:47:54;;;;;;;7.70;3.60;;;;;24.80;97976.60;;;;110699;1251;41163;-69
2022/05/09 05:50:23;;;;;;;8.50;3.10;;;;;24.80;97976.40;;;;110941;1251;41141;-70
2022/05/09 05:52:52;;;;;;;8.70;3.50;;;;;25.26;97974.00;;;;111037;1250;41237;-70
2022/05/09 05:55:21;;;;;;;9.60;3.70;;;;;25.10;97983.60;;;;110900;1250;42016;-70
2022/05/09 05:57:50;;;;;;;12.60;3.90;;;;;24.18;97993.60;;;;110917;1250;41449;-70
2022/05/09 06:00:22;;;;;;;7.30;3.10;;;;;23.30;98002.00;;;;110883;1250;42467;-69
2022/05/09 06:02:51;;;;;;;8.00;2.90;;;;;22.70;98003.80;;;;110956;1250;41253;-69
2022/05/09 06:05:20;;;;;;;8.70;2.90;;;;;22.26;98012.60;;;;110904;1250;41202;-70
2022/05/09 06:07:55;;;;;;;6.70;2.90;;;;;22.10;98008.00;;;;111167;1248;42003;-69
2022/05/09 06:10:26;;;;;;;11.30;3.10;;;;;22.10;98006.80;;;;110899;1251;41491;-70
2022/05/09 06:12:56;;;;;;;7.20;2.40;;;;;22.22;98004.20;;;;110956;1250;41154;-70
2022/05/09 06:15:25;;;;;;;7.40;2.70;;;;;22.60;98005.60;;;;110858;1250;41870;-70
2022/05/09 06:18:02;;;;;;;7.40;2.80;;;;;22.98;98001.20;;;;110921;1251;41435;-70
2022/05/09 06:20:34;;;;;;;8.70;2.80;;;;;23.70;97997.40;;;;110899;1248;41948;-70
2022/05/09 06:23:04;;;;;;;9.90;3.50;;;;;24.38;97995.20;;;;111096;1248;42282;-70
2022/05/09 06:25:34;;;;;;;7.90;3.10;;;;;24.80;98001.00;;;;110855;1250;41951;-70
2022/05/09 06:28:05;;;;;;;9.40;3.20;;;;;25.10;97995.20;;;;110918;1250;41129;-70
2022/05/09 06:30:34;;;;;;;8.10;3.30;;;;;25.68;97996.20;;;;111070;1249;41244;-70
2022/05/09 06:33:03;;;;;;;5.40;2.50;;;;;26.14;97994.60;;;;111084;1250;41152;-69
2022/05/09 06:35:41;;;;;;;7.80;2.90;;;;;26.54;97994.60;;;;110998;1249;41155;-70
2022/05/09 06:38:15;;;;;;;7.50;2.60;;;;;27.10;97988.60;;;;110854;1250;41423;-70
2022/05/09 06:40:44;;;;;;;6.30;2.50;;;;;27.82;97992.40;;;;110908;1250;41258;-70
2022/05/09 06:43:13;;;;;;;7.20;2.40;;;;;28.64;97988.40;;;;110818;1250;41262;-69
2022/05/09 06:45:43;;;;;;;7.40;2.90;;;;;29.30;97991.40;;;;110761;1250;41154;-70
2022/05/09 06:48:12;;;;;;;7.00;2.70;;;;;30.00;97984.00;;;;110860;1250;41602;-72
2022/05/09 06:50:41;;;;;;;5.30;2.30;;;;;30.36;97982.40;;;;111117;1250;41187;-71
2022/05/09 06:53:12;;;;;;;7.10;2.70;;;;;30.80;97982.60;;;;111077;1250;41153;-71
2022/05/09 06:55:46;;;;;;;6.50;2.40;;;;;31.14;97983.80;;;;110778;1251;41149;-70
2022/05/09 06:58:21;;;;;;;5.50;2.10;;;;;31.10;97982.20;;;;110899;1251;41481;-70
2022/05/09 07:00:51;;;;;;;4.90;2.10;;;;;31.30;97985.80;;;;110915;1250;41155;-72
2022/05/09 07:03:21;;;;;;;5.80;2.30;;;;;31.30;97987.60;;;;111055;1250;42408;-68
2022/05/09 07:05:51;;;;;;;7.00;2.50;;;;;31.26;97982.60;;;;111116;1250;42203;-68
2022/05/09 07:08:23;;;;;;;;;;;;;31.30;97983.40;;;;111079;1250;41153;-70
2022/05/09 07:10:52;;;;;;;8.30;2.30;;;;;31.40;97975.80;;;;110860;1250;41152;-70
2022/05/09 07:13:39;;;;;;;7.90;2.20;;;;;31.46;97979.80;;;;110938;1250;41136;-70
2022/05/09 07:16:09;;;;;;;8.50;2.70;;;;;31.80;97976.80;;;;111004;1250;41137;-70
2022/05/09 07:18:39;;;;;;;7.20;2.30;;;;;32.00;97977.00;;;;110968;1250;41721;-69
2022/05/09 07:21:08;;;;;;;;;;;;;31.92;97979.40;;;;111122;1249;41247;-68
2022/05/09 07:23:38;;;;;;;6.40;2.40;;;;;32.20;97976.60;;;;110855;1250;42544;-70
2022/05/09 07:26:07;;;;;;;5.40;2.10;;;;;32.20;97984.20;;;;110828;1250;41941;-69
2022/05/09 07:28:36;;;;;;;8.00;2.30;;;;;31.98;97979.00;;;;111051;1250;41152;-69
2022/05/09 07:31:05;;;;;;;7.00;2.40;;;;;32.00;97982.00;;;;111081;1249;41804;-71
2022/05/09 07:33:35;;;;;;;5.00;2.30;;;;;31.82;97982.80;;;;111056;1250;41495;-71
2022/05/09 07:36:05;;;;;;;6.50;2.20;;;;;31.42;97983.00;;;;111201;1248;41934;-71
2022/05/09 07:38:34;;;;;;;7.50;2.30;;;;;31.00;97992.40;;;;110968;1251;41354;-70
2022/05/09 07:41:03;;;;;;;8.70;2.80;;;;;30.62;97993.20;;;;111001;1250;41137;-70
2022/05/09 07:43:33;;;;;;;6.90;2.40;;;;;30.08;97993.00;;;;110905;1250;40909;-71
2022/05/09 07:46:02;;;;;;;6.60;2.40;;;;;28.80;97995.60;;;;111143;1248;41384;-70
2022/05/09 07:48:33;;;;;;;6.10;2.40;;;;;28.28;97997.80;;;;111036;1250;41140;-71
2022/05/09 07:51:02;;;;;;;11.80;2.70;;;;;28.22;98002.60;;;;110961;1251;41350;-71
2022/05/09 07:53:33;;;;;;;5.60;2.50;;;;;28.26;98003.00;;;;111127;1250;41189;-72
2022/05/09 07:56:06;;;;;;;6.00;2.50;;;;;28.00;98000.20;;;;111105;1249;41929;-71
2022/05/09 07:58:35;;;;;;;8.20;2.40;;;;;28.20;97995.80;;;;110880;1250;42233;-71
2022/05/09 08:01:05;;;;;;;6.20;2.40;;;;;28.76;97993.80;;;;110905;1250;41389;-71
2022/05/09 08:03:37;;;;;;;6.50;2.70;;;;;28.78;97993.80;;;;110920;1253;41456;-70
2022/05/09 08:06:06;;;;;;;7.20;2.50;;;;;28.20;97998.20;;;;110799;1252;41133;-72
2022/05/09 08:08:36;;;;;;;8.10;2.80;;;;;27.12;97997.60;;;;110992;1250;41145;-70
2022/05/09 08:11:11;;;;;;;6.30;2.40;;;;;26.40;98002.00;;;;110785;1250;41647;-72
2022/05/09 08:13:42;;;;;;;9.60;2.90;;;;;26.70;98000.40;;;;110802;1251;41820;-71
2022/05/09 08:16:12;;;;;;;7.70;2.50;;;;;27.38;97999.00;;;;110775;1250;41134;-71
2022/05/09 08:18:41;;;;;;;5.80;2.30;;;;;28.10;97992.60;;;;110982;1250;41876;-71
2022/05/09 08:21:12;;;;;;;6.20;2.50;;;;;28.52;97994.20;;;;110951;1251;42355;-71
2022/05/09 08:23:46;;;;;;;7.20;2.40;;;;;29.38;97993.40;;;;110854;1250;42378;-68
2022/05/09 08:26:16;;;;;;;7.60;2.90;;;;;30.50;97986.60;;;;110852;1250;41956;-71
2022/05/09 08:28:45;;;;;;;7.10;2.40;;;;;30.60;97990.20;;;;110875;1251;41254;-72
2022/05/09 08:31:18;;;;;;;7.80;2.30;;;;;31.22;97988.00;;;;110741;1253;41634;-71
2022/05/09 08:33:50;;;;;;;8.20;3.00;;;;;31.84;97984.60;;;;110830;1250;41901;-71
2022/05/09 08:39:08;;;;;;;7.70;2.90;;;;;31.20;97987.60;;;;110802;1250;41272;-72
2022/05/09 08:41:51;;;;;;;7.10;2.90;;;;;30.72;97984.20;;;;110821;1250;41154;-71
2022/05/09 08:44:27;;;;;;;8.30;2.80;;;;;30.30;97982.00;;;;110895;1250;42003;-69
2022/05/09 08:47:05;;;;;;;7.00;2.40;;;;;30.68;97981.20;;;;110749;1251;42117;-70
2022/05/09 08:49:48;;;;;;;5.30;2.30;;;;;31.14;97982.00;;;;110915;1250;41213;-72
2022/05/09 08:52:35;;;;;;;10.50;3.40;;;;;31.86;97976.00;;;;110990;1250;41158;-71
2022/05/09 08:55:06;;;;;;;9.90;2.90;;;;;32.44;97975.80;;;;110658;1253;41665;-70
2022/05/09 08:58:11;;;;;;;10.60;3.30;;;;;32.00;97980.40;;;;110904;1253;42410;-73
2022/05/09 09:00:49;;;;;;;8.50;2.60;;;;;29.56;97989.60;;;;110756;1252;41530;-71
2022/05/09 09:03:28;;;;;;;7.50;2.70;;;;;29.28;97989.20;;;;110764;1252;41273;-71
2022/05/09 09:06:04;;;;;;;7.10;2.80;;;;;29.20;97993.60;;;;110774;1250;41921;-71
2022/05/09 09:08:58;;;;;;;9.60;2.50;;;;;28.94;97988.40;;;;110938;1250;41130;-69
2022/05/09 09:11:50;;;;;;;7.10;2.70;;;;;29.54;97992.00;;;;110824;1250;40743;-71
2022/05/09 09:14:43;;;;;;;7.60;2.50;;;;;29.54;97987.60;;;;111038;1250;41194;-72
2022/05/09 09:17:36;;;;;;;6.20;2.60;;;;;29.80;97975.60;;;;110785;1250;41613;-71
2022/05/09 09:20:32;;;;;;;7.10;2.60;;;;;29.90;97972.60;;;;110770;1252;41947;-71
2022/05/09 09:23:19;;;;;;;7.30;2.60;;;;;30.44;97976.20;;;;110911;1250;42355;-71
2022/05/09 09:26:20;;;;;;;7.10;2.50;;;;;30.70;97971.40;;;;110617;1250;41616;-70
2022/05/09 09:29:06;;;;;;;6.20;2.50;;;;;30.80;97969.00;;;;110954;1251;41158;-71
2022/05/09 09:31:38;;;;;;;7.50;2.80;;;;;30.76;97970.60;;;;110981;1250;41265;-71
2022/05/09 09:34:38;;;;;;;7.30;2.60;;;;;29.96;97971.40;;;;111069;1250;41360;-70
2022/05/09 09:37:11;;;;;;;6.90;2.80;;;;;29.90;97968.00;;;;110978;1250;41270;-70
2022/05/09 09:39:40;;;;;;;8.00;2.40;;;;;29.44;97974.80;;;;110835;1252;41528;-71
2022/05/09 09:42:09;;;;;;;5.30;2.20;;;;;29.06;97976.60;;;;110693;1255;41946;-72
2022/05/09 09:44:42;;;;;;;5.40;1.90;;;;;28.28;97976.40;;;;110979;1250;41607;-71
2022/05/09 09:47:24;;;;;;;6.90;2.10;;;;;28.78;97967.40;;;;110784;1253;40882;-70
2022/05/09 09:50:23;;;;;;;6.00;2.10;;;;;29.66;97971.00;;;;110821;1251;41398;-70
2022/05/09 09:52:56;;;;;;;6.30;2.10;;;;;30.84;97965.80;;;;110783;1250;41150;-71
2022/05/09 09:55:39;;;;;;;4.70;2.00;;;;;31.80;97961.60;;;;110970;1250;41169;-71
2022/05/09 09:58:28;;;;;;;6.20;2.50;;;;;32.54;97953.80;;;;110742;1250;373354;-72
2022/05/09 10:01:15;;;;;;;5.50;2.10;;;;;31.90;97954.40;;;;111011;1251;41286;-71
2022/05/09 10:03:48;;;;;;;5.40;2.10;;;;;30.74;97949.60;;;;111036;1250;41160;-71
2022/05/09 10:06:22;;;;;;;11.10;2.20;;;;;30.32;97951.40;;;;111069;1250;41262;-71
2022/05/09 10:09:02;;;;;;;6.10;2.70;;;;;30.66;97946.60;;;;110999;1250;41943;-71
2022/05/09 10:11:31;;;;;;;4.90;2.00;;;;;31.16;97946.80;;;;111147;1250;41156;-70
2022/05/09 10:14:05;;;;;;;9.70;2.90;;;;;30.58;97941.20;;;;111095;1250;41588;-71
2022/05/09 10:16:45;;;;;;;5.50;2.30;;;;;30.70;97944.20;;;;111145;1248;41173;-71
2022/05/09 10:19:29;;;;;;;5.50;2.20;;;;;30.16;97934.80;;;;111216;1248;41124;-73
2022/05/09 10:24:57;;;;;;;8.70;2.20;;;;;31.26;97939.60;;;;111028;1250;41153;-71
2022/05/09 10:27:29;;;;;;;4.80;1.80;;;;;31.80;97938.80;;;;111013;1250;41318;-70
2022/05/09 10:30:22;;;;;;;7.20;2.00;;;;;31.44;97941.40;;;;111174;1248;41247;-71
2022/05/09 10:32:55;;;;;;;4.30;2.00;;;;;31.20;97942.80;;;;110917;1251;41147;-71
2022/05/09 10:35:29;;;;;;;6.00;2.40;;;;;30.90;97946.40;;;;111061;1250;41719;-71
2022/05/09 10:38:11;;;;;;;4.90;2.00;;;;;30.50;97942.00;;;;110995;1250;42365;-71
2022/05/09 10:40:43;;;;;;;5.50;2.10;;;;;30.08;97936.60;;;;110814;1250;41616;-71
2022/05/09 10:43:18;;;;;;;5.60;2.30;;;;;29.60;97936.60;;;;110936;1250;42419;-70
2022/05/09 10:45:49;;;;;;;5.10;2.10;;;;;29.30;97938.60;;;;110878;1250;41137;-70
2022/05/09 10:48:29;;;;;;;5.60;2.00;;;;;29.10;97935.40;;;;110674;1250;41184;-71
2022/05/09 10:51:02;;;;;;;5.00;2.20;;;;;29.00;97933.20;;;;110851;1250;41648;-70
2022/05/09 10:53:35;;;;;;;6.70;2.10;;;;;28.86;97930.20;;;;110978;1250;41152;-71
2022/05/09 10:56:30;;;;;;;5.00;2.00;;;;;28.70;97924.00;;;;110943;1250;41151;-71
2022/05/09 10:59:12;;;;;;;6.00;2.20;;;;;28.60;97923.60;;;;110976;1251;42408;-72
2022/05/09 11:01:56;;;;;;;4.60;2.10;;;;;29.16;97921.20;;;;110937;1250;41136;-72
2022/05/09 11:04:29;;;;;;;5.00;2.00;;;;;30.12;97917.20;;;;111022;1250;41179;-69
2022/05/09 11:07:25;;;;;;;4.10;1.90;;;;;31.12;97917.60;;;;110867;1251;41633;-71
2022/05/09 11:10:00;;;;;;;4.20;1.90;;;;;32.54;97912.20;;;;111059;1250;41327;-71
2022/05/09 11:12:45;;;;;;;4.70;2.00;;;;;33.98;97906.60;;;;111069;1250;41594;-71
2022/05/09 11:15:21;;;;;;;7.40;2.00;;;;;35.50;97906.60;;;;110818;1251;41458;-71
2022/05/09 11:18:14;;;;;;;4.90;2.00;;;;;35.42;97909.80;;;;110864;1250;41269;-71
2022/05/09 11:20:44;;;;;;;8.70;2.00;;;;;34.60;97934.40;;;;110922;1251;41247;-70
2022/05/09 11:23:38;;;;;;;4.30;1.80;;;;;33.56;97947.80;;;;111029;1250;41203;-70
2022/05/09 11:26:41;;;;;;;3.70;1.60;;;;;32.16;97955.40;;;;110973;1250;41146;-70
2022/05/09 11:29:30;;;;;;;3.60;1.70;;;;;30.88;97968.00;;;;110890;1250;41145;-72
2022/05/09 11:32:18;;;;;;;7.10;1.90;;;;;28.80;97954.60;;;;111055;1250;41593;-72
2022/05/09 11:35:10;;;;;;;4.20;1.60;;;;;28.22;97975.40;;;;110868;1250;41725;-71
2022/05/09 11:37:59;;;;;;;5.00;1.80;;;;;28.20;97969.00;;;;110907;1250;41188;-71
2022/05/09 11:40:38;;;;;;;3.40;1.50;;;;;28.10;97959.00;;;;111141;1250;41163;-71
2022/05/09 11:43:28;;;;;;;5.40;1.50;;;;;28.66;97964.40;;;;110993;1250;41251;-71
2022/05/09 11:46:13;;;;;;;3.10;1.40;;;;;28.76;97972.60;;;;111007;1250;41171;-71
2022/05/09 11:48:53;;;;;;;4.90;1.60;;;;;29.16;97974.60;;;;110936;1250;41140;-72
2022/05/09 11:51:38;;;;;;;6.80;1.60;;;;;28.26;97973.20;;;;111066;1250;41603;-70
2022/05/09 11:54:11;;;;;;;2.80;1.50;;;;;26.96;97976.40;;;;111097;1250;41150;-71
2022/05/09 11:56:46;;;;;;;2.80;1.50;;;;;26.38;97970.00;;;;110935;1250;41436;-71
2022/05/09 11:59:37;;;;;;;1.90;1.30;;;;;26.82;97955.40;;;;110695;1250;41635;-71
2022/05/09 12:02:11;;;;;;;4.00;1.30;;;;;27.52;97964.40;;;;110716;1250;41795;-70
2022/05/09 12:04:47;;;;;;;3.00;1.40;;;;;27.34;97959.60;;;;110892;1252;41821;-71
2022/05/09 12:07:28;;;;;;;4.30;1.40;;;;;26.56;97963.20;;;;110868;1250;41136;-72
2022/05/09 12:10:04;;;;;;;2.90;1.30;;;;;26.90;97956.00;;;;110882;1251;41723;-70
2022/05/09 12:12:41;;;;;;;1.80;1.20;;;;;27.22;97958.20;;;;110918;1250;41273;-70
2022/05/09 12:15:15;;;;;;;5.20;1.60;;;;;27.44;97957.40;;;;110972;1250;41142;-72
2022/05/09 12:17:50;;;;;;;1.90;1.20;;;;;26.90;97958.40;;;;110974;1250;40730;-71
2022/05/09 12:20:28;;;;;;;3.40;1.40;;;;;26.86;97964.40;;;;110860;1251;41379;-71
2022/05/09 12:22:58;;;;;;;3.30;1.30;;;;;26.90;97966.40;;;;110884;1250;41156;-70
2022/05/09 12:25:42;;;;;;;2.60;1.20;;;;;27.16;97967.80;;;;110842;1251;41731;-71
2022/05/09 12:28:23;;;;;;;1.50;1.20;;;;;26.42;97975.60;;;;110920;1250;40875;-70
2022/05/09 12:31:01;;;;;;;1.90;1.40;;;;;26.10;97980.80;;;;110719;1253;42397;-70
2022/05/09 12:33:46;;;;;;;3.20;1.30;;;;;25.00;97972.60;;;;110910;1252;41133;-71
2022/05/09 12:36:25;;;;;;;4.00;1.40;;;;;25.04;97986.00;;;;110859;1250;41651;-72
2022/05/09 12:39:00;;;;;;;5.10;2.20;;;;;25.10;97989.40;;;;110806;1250;41923;-69
2022/05/09 12:41:32;;;;;;;7.40;2.10;;;;;24.60;97993.80;;;;110847;1252;41586;-70
2022/05/09 12:44:10;;;;;;;7.00;2.20;;;;;24.10;97997.40;;;;110986;1250;41717;-71
2022/05/09 12:46:45;;;;;;;4.70;1.70;;;;;23.60;97994.40;;;;110896;1251;41594;-70
2022/05/09 12:49:17;;;;;;;5.00;1.70;;;;;23.20;97999.00;;;;110941;1250;42387;-72
2022/05/09 12:51:57;;;;;;;5.20;1.80;;;;;23.08;97994.80;;;;110825;1250;42371;-72
2022/05/09 12:54:28;;;;;;;3.30;1.60;;;;;23.00;97999.20;;;;111009;1250;42022;-71